Time;durP1;ratioP1;P1;durP2;ratioP2;P2;SDS_P1;SDS_P2;PMS_P1;PMS_P2;Temp;Humidity;BMP_temperature;BMP_pressure;BME280_temperature;BME280_humidity;BME280_pressure;Samples;Min_cycle;Max_cycle;Signal;HPM_P1;HPM_P2
2023/08/01 00:01:33;;;;;;;3.05;2.22;;;22.00;89.50;;;;;;4914363;29;20089;-76
2023/08/01 00:03:58;;;;;;;3.28;1.95;;;22.00;89.30;;;;;;4914425;29;20357;-75
2023/08/01 00:06:24;;;;;;;3.40;2.05;;;22.10;89.20;;;;;;4929966;29;20154;-75
2023/08/01 00:08:51;;;;;;;1.98;1.30;;;22.10;88.80;;;;;;4931908;29;20074;-75
2023/08/01 00:11:16;;;;;;;4.40;2.03;;;22.10;89.30;;;;;;4932042;29;20028;-75
2023/08/01 00:13:43;;;;;;;2.28;1.63;;;22.00;88.20;;;;;;4914587;29;20083;-77
2023/08/01 00:16:09;;;;;;;3.45;1.90;;;22.10;88.20;;;;;;4914493;29;20036;-74
2023/08/01 00:18:35;;;;;;;2.85;2.10;;;22.20;87.90;;;;;;4931340;29;20107;-77
2023/08/01 00:21:01;;;;;;;2.35;1.83;;;22.20;87.50;;;;;;4931253;29;20111;-76
2023/08/01 00:23:27;;;;;;;2.92;1.63;;;22.20;87.50;;;;;;4931571;29;20031;-75
2023/08/01 00:25:52;;;;;;;4.03;2.05;;;22.20;87.40;;;;;;4931801;29;20051;-75
2023/08/01 00:28:18;;;;;;;3.70;1.58;;;22.20;87.50;;;;;;4914670;29;20062;-75
2023/08/01 00:30:44;;;;;;;5.05;2.40;;;22.20;87.00;;;;;;4934629;29;20032;-75
2023/08/01 00:33:10;;;;;;;2.00;1.83;;;22.30;87.10;;;;;;4917763;29;20171;-75
2023/08/01 00:35:35;;;;;;;2.30;1.85;;;22.20;86.90;;;;;;4917550;29;20035;-76
2023/08/01 00:38:01;;;;;;;2.70;2.35;;;22.20;86.90;;;;;;4934602;29;20063;-77
2023/08/01 00:40:31;;;;;;;3.60;2.63;;;22.30;87.00;;;;;;4934681;29;20476;-76
2023/08/01 00:42:57;;;;;;;1.80;1.58;;;22.30;86.70;;;;;;4917459;29;20055;-74
2023/08/01 00:45:26;;;;;;;1.85;1.70;;;22.30;87.40;;;;;;4917659;29;20024;-75
2023/08/01 00:47:52;;;;;;;1.83;1.50;;;22.30;86.70;;;;;;4934955;29;20036;-77
2023/08/01 00:50:20;;;;;;;4.22;2.20;;;22.30;86.80;;;;;;4934667;29;20102;-75
2023/08/01 00:52:50;;;;;;;3.47;1.88;;;22.40;86.10;;;;;;4934447;29;20399;-75
2023/08/01 00:55:16;;;;;;;2.63;1.80;;;22.40;86.40;;;;;;4934473;29;20472;-76
2023/08/01 00:57:42;;;;;;;2.13;1.85;;;22.40;86.30;;;;;;4934295;29;20119;-75
2023/08/01 01:00:09;;;;;;;4.07;2.17;;;22.30;86.40;;;;;;4937780;29;20020;-75
2023/08/01 01:02:35;;;;;;;4.22;1.90;;;22.40;86.70;;;;;;4926608;29;20032;-77
2023/08/01 01:05:02;;;;;;;3.22;1.92;;;22.30;87.10;;;;;;4935744;29;20028;-75
2023/08/01 01:07:29;;;;;;;3.08;1.27;;;22.30;87.00;;;;;;4917060;29;20082;-75
2023/08/01 01:09:55;;;;;;;5.68;2.08;;;22.30;86.90;;;;;;4917007;29;20145;-76
2023/08/01 01:12:20;;;;;;;4.35;1.98;;;22.20;87.70;;;;;;4934093;29;20053;-74
2023/08/01 01:14:46;;;;;;;2.40;1.73;;;22.20;88.80;;;;;;4934222;29;20453;-76
2023/08/01 01:17:12;;;;;;;5.07;1.85;;;22.10;89.10;;;;;;4925124;29;20485;-75
2023/08/01 01:19:38;;;;;;;2.40;1.50;;;21.90;90.20;;;;;;4935267;29;20544;-77
2023/08/01 01:22:08;;;;;;;5.10;3.17;;;21.80;90.60;;;;;;4951419;29;20134;-76
2023/08/01 01:24:36;;;;;;;1.65;1.48;;;21.60;91.10;;;;;;4951425;29;20015;-76
2023/08/01 01:27:03;;;;;;;3.97;1.77;;;21.50;91.00;;;;;;4951346;29;20106;-75
2023/08/01 01:29:30;;;;;;;3.90;2.25;;;21.40;91.20;;;;;;4950700;29;20031;-74
2023/08/01 01:31:57;;;;;;;4.30;1.50;;;21.30;91.20;;;;;;4933939;29;20102;-76
2023/08/01 01:34:23;;;;;;;3.63;1.83;;;21.30;91.30;;;;;;4951517;29;20123;-76
2023/08/01 01:36:49;;;;;;;2.30;1.73;;;21.30;91.30;;;;;;4935533;29;20063;-75
2023/08/01 01:39:14;;;;;;;3.63;1.95;;;21.30;91.30;;;;;;4952805;28;20058;-76
2023/08/01 01:41:40;;;;;;;1.83;1.42;;;21.20;91.50;;;;;;4937126;29;20074;-76
2023/08/01 01:44:06;;;;;;;1.52;1.33;;;21.20;91.90;;;;;;4944137;29;20054;-75
2023/08/01 01:46:31;;;;;;;2.47;2.08;;;21.10;91.80;;;;;;4938990;29;20142;-75
2023/08/01 01:49:00;;;;;;;4.40;1.90;;;21.10;91.70;;;;;;4935228;29;20118;-75
2023/08/01 01:51:26;;;;;;;3.65;2.22;;;21.10;91.60;;;;;;4952333;29;20027;-77
2023/08/01 01:53:52;;;;;;;1.95;1.50;;;21.20;91.60;;;;;;4952386;29;20023;-75
2023/08/01 01:56:18;;;;;;;3.08;1.80;;;21.30;91.50;;;;;;4952421;29;20476;-75
2023/08/01 01:58:43;;;;;;;3.05;1.95;;;21.30;91.40;;;;;;4935249;29;20562;-75
2023/08/01 02:01:09;;;;;;;2.58;2.15;;;21.30;91.20;;;;;;4952469;29;20031;-75
2023/08/01 02:03:35;;;;;;;5.72;2.30;;;21.30;91.00;;;;;;4952364;29;20035;-76
2023/08/01 02:06:03;;;;;;;3.28;1.90;;;21.40;91.00;;;;;;4952029;29;20407;-77
2023/08/01 02:08:29;;;;;;;2.88;1.55;;;21.40;91.00;;;;;;4952050;29;20235;-75
2023/08/01 02:10:57;;;;;;;3.67;1.55;;;21.40;90.80;;;;;;4952384;29;20027;-75
2023/08/01 02:13:27;;;;;;;2.85;1.63;;;21.50;90.70;;;;;;4952388;29;20099;-76
2023/08/01 02:15:53;;;;;;;4.93;2.08;;;21.50;90.60;;;;;;4934888;29;20102;-75
2023/08/01 02:18:19;;;;;;;2.17;1.63;;;21.60;90.50;;;;;;4934981;29;20416;-76
2023/08/01 02:20:45;;;;;;;5.88;2.47;;;21.60;90.70;;;;;;4951609;29;20079;-76
2023/08/01 02:23:10;;;;;;;3.08;2.17;;;21.50;90.80;;;;;;4951901;29;20035;-75
2023/08/01 02:25:40;;;;;;;2.47;1.90;;;21.50;90.50;;;;;;4951711;29;20506;-75
2023/08/01 02:28:06;;;;;;;3.55;2.00;;;21.50;90.50;;;;;;4951749;29;20374;-76
2023/08/01 02:30:32;;;;;;;3.08;2.15;;;21.50;90.70;;;;;;4952006;29;20023;-76
2023/08/01 02:32:58;;;;;;;3.13;1.70;;;21.50;90.30;;;;;;4934784;29;20043;-76
2023/08/01 02:35:23;;;;;;;4.50;1.90;;;21.50;90.00;;;;;;4934586;29;20027;-75
2023/08/01 02:37:49;;;;;;;6.50;1.65;;;21.50;90.00;;;;;;4951911;29;20031;-75
2023/08/01 02:40:15;;;;;;;2.85;1.60;;;21.50;89.70;;;;;;4951516;29;20142;-74
2023/08/01 02:42:40;;;;;;;2.78;1.77;;;21.50;90.00;;;;;;4951640;29;20396;-77
2023/08/01 02:45:06;;;;;;;2.38;1.42;;;21.50;90.00;;;;;;4934278;29;20118;-75
2023/08/01 02:47:32;;;;;;;5.05;2.13;;;21.40;89.90;;;;;;4951447;29;20170;-76
2023/08/01 02:49:57;;;;;;;4.90;1.83;;;21.40;89.30;;;;;;4951623;29;20527;-76
2023/08/01 02:52:23;;;;;;;2.67;1.50;;;21.40;89.90;;;;;;4933752;29;20444;-75
2023/08/01 02:54:49;;;;;;;3.67;1.58;;;21.30;89.70;;;;;;4951375;29;20495;-75
2023/08/01 02:57:14;;;;;;;2.75;1.88;;;21.30;89.50;;;;;;4934246;29;20041;-75
2023/08/01 02:59:40;;;;;;;2.13;1.90;;;21.20;90.20;;;;;;4951284;29;20472;-77
2023/08/01 03:02:05;;;;;;;3.75;1.60;;;21.20;89.40;;;;;;4933840;29;20500;-75
2023/08/01 03:04:31;;;;;;;3.80;1.75;;;21.20;89.80;;;;;;4933644;29;20113;-75
2023/08/01 03:06:57;;;;;;;3.13;1.20;;;21.10;90.40;;;;;;4951270;29;20027;-75
2023/08/01 03:09:22;;;;;;;3.10;1.83;;;21.10;90.00;;;;;;4951217;29;20472;-75
2023/08/01 03:11:48;;;;;;;2.08;1.25;;;21.20;90.00;;;;;;4934061;29;20472;-75
2023/08/01 03:14:13;;;;;;;2.42;1.70;;;21.20;90.00;;;;;;4951217;29;20476;-76
2023/08/01 03:16:39;;;;;;;2.15;1.55;;;21.10;90.30;;;;;;4951307;29;20049;-76
2023/08/01 03:19:05;;;;;;;3.28;1.70;;;21.10;90.40;;;;;;4933720;29;20478;-75
2023/08/01 03:21:34;;;;;;;1.55;1.42;;;21.10;90.30;;;;;;4950823;29;20174;-76
2023/08/01 03:24:00;;;;;;;;;;;21.10;90.20;;;;;;4951409;29;20145;-75
2023/08/01 03:26:28;;;;;;;3.55;1.50;;;21.10;90.20;;;;;;4933602;29;19922;-75
2023/08/01 03:28:55;;;;;;;3.03;1.50;;;21.00;90.30;;;;;;4933932;29;20114;-76
2023/08/01 03:31:21;;;;;;;2.72;1.67;;;21.00;90.10;;;;;;4951144;29;20062;-75
2023/08/01 03:33:47;;;;;;;3.03;1.80;;;21.00;90.30;;;;;;4951123;29;20023;-74
2023/08/01 03:36:13;;;;;;;3.38;1.80;;;21.00;90.50;;;;;;4950945;29;20028;-75
2023/08/01 03:38:39;;;;;;;3.10;2.00;;;20.90;90.90;;;;;;4933314;29;20031;-75
2023/08/01 03:41:05;;;;;;;3.63;1.88;;;20.90;91.40;;;;;;4950921;29;20055;-76
2023/08/01 03:43:30;;;;;;;3.10;2.55;;;20.60;91.80;;;;;;4950872;29;20176;-76
2023/08/01 03:45:56;;;;;;;3.90;2.00;;;20.50;92.30;;;;;;4950827;29;20118;-75
2023/08/01 03:48:22;;;;;;;2.85;1.67;;;20.30;92.70;;;;;;4950776;29;20280;-75
2023/08/01 03:50:47;;;;;;;2.42;1.45;;;20.20;93.80;;;;;;4951545;29;20027;-76
2023/08/01 03:53:13;;;;;;;2.95;1.58;;;20.10;94.20;;;;;;4950846;29;20507;-77
2023/08/01 03:55:39;;;;;;;3.40;2.28;;;19.90;95.30;;;;;;4951343;29;20031;-76
2023/08/01 03:58:05;;;;;;;2.17;1.98;;;19.80;96.40;;;;;;4950847;29;20031;-76
2023/08/01 04:00:32;;;;;;;3.00;2.00;;;19.70;97.30;;;;;;4951010;29;20488;-74
2023/08/01 04:02:58;;;;;;;6.55;2.08;;;21.10;98.40;;;;;;4950712;28;20070;-76
2023/08/01 04:05:24;;;;;;;2.42;1.33;;;19.50;98.10;;;;;;4954477;29;20499;-76
2023/08/01 04:07:50;;;;;;;2.03;1.83;;;19.50;98.20;;;;;;4954524;29;20035;-75
2023/08/01 04:10:15;;;;;;;5.07;2.17;;;19.40;98.30;;;;;;4954480;29;20114;-77
2023/08/01 04:12:42;;;;;;;5.40;2.20;;;19.40;98.70;;;;;;4954339;29;20028;-75
2023/08/01 04:15:08;;;;;;;4.47;1.67;;;19.40;99.00;;;;;;4936852;29;20023;-74
2023/08/01 04:17:34;;;;;;;2.80;1.73;;;19.40;99.30;;;;;;4954537;29;20023;-78
2023/08/01 04:20:00;;;;;;;7.53;1.83;;;19.30;99.70;;;;;;4954386;29;20085;-75
2023/08/01 04:22:26;;;;;;;5.93;2.35;;;19.30;99.80;;;;;;4936889;29;20088;-75
2023/08/01 04:24:51;;;;;;;2.53;1.85;;;19.20;99.90;;;;;;4954085;29;20038;-75
2023/08/01 04:27:17;;;;;;;5.05;2.40;;;19.30;99.90;;;;;;4936713;29;20054;-75
2023/08/01 04:29:42;;;;;;;3.75;2.15;;;19.20;99.90;;;;;;4936713;29;20027;-75
2023/08/01 04:32:08;;;;;;;2.83;1.88;;;19.10;99.90;;;;;;4936639;29;20130;-76
2023/08/01 04:34:34;;;;;;;2.25;1.98;;;19.10;99.90;;;;;;4954172;29;20055;-76
2023/08/01 04:36:59;;;;;;;2.50;2.30;;;19.10;99.90;;;;;;4938171;29;20023;-76
2023/08/01 04:39:25;;;;;;;2.50;1.73;;;19.00;99.90;;;;;;4956885;29;20119;-75
2023/08/01 04:41:51;;;;;;;8.68;2.38;;;19.00;99.90;;;;;;4954217;29;20122;-75
2023/08/01 04:44:16;;;;;;;3.75;1.60;;;19.00;99.90;;;;;;4953937;29;20110;-75
2023/08/01 04:46:42;;;;;;;5.28;2.65;;;18.90;99.90;;;;;;4953800;29;20031;-75
2023/08/01 04:49:07;;;;;;;3.20;1.70;;;18.90;99.90;;;;;;4953571;29;20032;-74
2023/08/01 04:51:33;;;;;;;3.25;2.00;;;18.80;99.90;;;;;;4953669;29;20123;-76
2023/08/01 04:53:59;;;;;;;2.35;1.40;;;18.40;99.90;;;;;;4936501;29;20450;-75
2023/08/01 04:56:24;;;;;;;4.05;2.22;;;18.10;99.90;;;;;;4953813;29;20415;-75
2023/08/01 04:58:50;;;;;;;8.88;2.70;;;17.70;99.90;;;;;;4937107;29;20031;-76
2023/08/01 05:01:16;;;;;;;3.95;1.98;;;17.50;99.90;;;;;;4953760;29;20031;-76
2023/08/01 05:03:41;;;;;;;4.30;2.15;;;17.30;99.90;;;;;;4953623;29;20074;-76
2023/08/01 05:06:07;;;;;;;4.47;2.25;;;17.10;99.90;;;;;;4953504;29;20283;-76
2023/08/01 05:08:33;;;;;;;4.57;3.03;;;16.90;99.90;;;;;;4953335;29;20042;-75
2023/08/01 05:10:59;;;;;;;4.45;2.53;;;16.80;99.90;;;;;;4953621;29;20051;-76
2023/08/01 05:13:25;;;;;;;6.85;2.60;;;16.60;99.90;;;;;;4936042;29;20027;-76
2023/08/01 05:15:50;;;;;;;2.80;2.10;;;17.70;99.90;;;;;;4953376;28;20487;-76
2023/08/01 05:18:17;;;;;;;2.88;1.73;;;16.50;99.90;;;;;;4953430;29;20031;-75
2023/08/01 05:20:43;;;;;;;3.75;2.45;;;16.40;99.90;;;;;;4953774;29;20031;-75
2023/08/01 05:23:09;;;;;;;3.28;2.45;;;16.40;99.90;;;;;;4953988;29;20039;-75
2023/08/01 05:25:35;;;;;;;3.25;1.80;;;16.30;99.90;;;;;;4953674;29;20090;-76
2023/08/01 05:28:01;;;;;;;6.55;2.80;;;16.30;99.90;;;;;;4953558;29;20487;-75
2023/08/01 05:30:26;;;;;;;18.77;3.15;;;16.20;99.90;;;;;;4953462;29;20027;-76
2023/08/01 05:32:53;;;;;;;4.82;2.00;;;16.20;99.90;;;;;;4936515;29;20019;-75
2023/08/01 05:35:20;;;;;;;6.25;2.83;;;16.20;99.90;;;;;;4936299;29;20031;-75
2023/08/01 05:37:45;;;;;;;2.78;2.03;;;16.30;99.90;;;;;;4936074;29;20047;-75
2023/08/01 05:40:11;;;;;;;4.40;2.78;;;15.80;99.90;;;;;;4953708;29;20511;-75
2023/08/01 05:42:37;;;;;;;5.07;2.60;;;16.20;99.90;;;;;;4953322;29;20491;-75
2023/08/01 05:45:04;;;;;;;2.35;1.88;;;16.20;99.90;;;;;;4953304;29;20188;-75
2023/08/01 05:47:30;;;;;;;5.95;3.08;;;15.50;99.90;;;;;;4953456;29;20051;-75
2023/08/01 05:49:55;;;;;;;4.53;2.72;;;16.20;99.90;;;;;;4936090;29;20034;-75
2023/08/01 05:52:21;;;;;;;2.97;2.17;;;16.20;99.90;;;;;;4953586;29;20031;-75
2023/08/01 05:54:47;;;;;;;5.60;2.67;;;16.20;99.90;;;;;;4953231;29;20472;-76
2023/08/01 05:57:12;;;;;;;4.07;2.00;;;16.10;99.90;;;;;;4936017;29;20058;-76
2023/08/01 05:59:38;;;;;;;3.47;2.13;;;16.10;99.90;;;;;;4935762;29;20387;-76
2023/08/01 06:02:04;;;;;;;2.97;2.00;;;16.10;99.90;;;;;;4935698;29;20038;-75
2023/08/01 06:04:29;;;;;;;3.85;2.20;;;16.20;99.90;;;;;;4952939;29;20523;-76
2023/08/01 06:06:56;;;;;;;5.85;2.78;;;16.10;99.90;;;;;;4952837;29;20503;-76
2023/08/01 06:09:21;;;;;;;3.83;1.92;;;16.20;99.90;;;;;;4936787;29;20027;-75
2023/08/01 06:11:47;;;;;;;2.53;1.98;;;16.20;99.90;;;;;;4955165;29;20088;-76
2023/08/01 06:14:13;;;;;;;4.70;2.33;;;16.30;99.90;;;;;;4953929;29;20035;-76
2023/08/01 06:16:39;;;;;;;5.63;1.83;;;16.30;99.90;;;;;;4938490;29;20346;-76
2023/08/01 06:19:04;;;;;;;3.22;2.78;;;16.40;99.90;;;;;;4956434;29;20051;-72
2023/08/01 06:21:30;;;;;;;4.57;2.42;;;16.40;99.90;;;;;;4949957;29;20401;-70
2023/08/01 06:23:56;;;;;;;4.18;1.80;;;16.50;99.90;;;;;;4936560;29;20274;-74
2023/08/01 06:26:22;;;;;;;5.15;1.70;;;16.70;99.90;;;;;;4943312;29;20051;-74
2023/08/01 06:28:47;;;;;;;4.15;2.08;;;16.80;99.90;;;;;;4935985;29;20031;-73
2023/08/01 06:31:13;;;;;;;2.83;2.05;;;16.90;99.90;;;;;;4950556;29;20023;-73
2023/08/01 06:33:39;;;;;;;4.80;2.17;;;17.00;99.90;;;;;;4951103;29;20038;-73
2023/08/01 06:36:07;;;;;;;3.40;1.85;;;17.00;99.90;;;;;;4953079;29;20106;-75
2023/08/01 06:38:33;;;;;;;4.70;1.80;;;17.00;99.90;;;;;;4935042;29;20031;-74
2023/08/01 06:40:59;;;;;;;4.85;2.13;;;17.00;99.90;;;;;;4952395;29;20122;-74
2023/08/01 06:43:24;;;;;;;2.90;2.38;;;17.10;99.90;;;;;;4951896;29;20388;-75
2023/08/01 06:45:50;;;;;;;3.13;1.75;;;17.10;99.90;;;;;;4934718;29;20027;-75
2023/08/01 06:48:16;;;;;;;3.28;2.72;;;17.10;99.90;;;;;;4952698;29;20098;-77
2023/08/01 06:50:42;;;;;;;2.80;1.98;;;17.10;99.90;;;;;;4953168;29;20070;-73
2023/08/01 06:53:08;;;;;;;2.20;1.98;;;17.20;99.90;;;;;;4951534;29;20523;-74
2023/08/01 06:55:34;;;;;;;3.10;1.73;;;17.30;99.90;;;;;;4951636;29;20034;-75
2023/08/01 06:57:59;;;;;;;1.95;1.70;;;17.40;99.90;;;;;;4934369;29;20023;-73
2023/08/01 07:00:25;;;;;;;3.70;2.13;;;17.50;99.90;;;;;;4951659;29;20464;-74
2023/08/01 07:02:51;;;;;;;6.68;2.13;;;17.60;99.90;;;;;;4951648;29;20045;-75
2023/08/01 07:05:17;;;;;;;4.80;1.98;;;17.70;99.90;;;;;;4951528;29;20087;-72
2023/08/01 07:07:42;;;;;;;3.65;1.50;;;17.70;99.90;;;;;;4951631;29;20035;-75
2023/08/01 07:10:08;;;;;;;3.10;1.77;;;17.70;99.90;;;;;;4952435;29;20027;-73
2023/08/01 07:12:34;;;;;;;2.95;1.42;;;17.70;99.90;;;;;;4934359;29;20027;-73
2023/08/01 07:14:59;;;;;;;8.25;2.63;;;17.80;99.90;;;;;;4951681;29;20027;-75
2023/08/01 07:17:25;;;;;;;4.57;2.38;;;17.80;99.90;;;;;;4935416;29;20031;-73
2023/08/01 07:19:51;;;;;;;3.80;1.83;;;17.80;99.90;;;;;;4951446;29;20031;-75
2023/08/01 07:22:16;;;;;;;3.67;2.08;;;17.80;99.90;;;;;;4932318;29;20031;-76
2023/08/01 07:24:45;;;;;;;5.82;2.35;;;17.70;99.90;;;;;;4949803;29;20456;-75
2023/08/01 07:27:12;;;;;;;2.55;1.92;;;17.70;99.90;;;;;;4951553;29;20102;-77
2023/08/01 07:29:38;;;;;;;5.65;1.70;;;17.60;99.90;;;;;;4954329;29;20023;-78
2023/08/01 07:32:04;;;;;;;3.75;1.70;;;17.50;99.90;;;;;;4937046;29;20439;-77
2023/08/01 07:34:30;;;;;;;3.75;1.35;;;17.40;99.90;;;;;;4942344;29;20041;-77
2023/08/01 07:36:56;;;;;;;3.05;2.22;;;17.30;99.90;;;;;;4952525;29;20515;-75
2023/08/01 07:39:22;;;;;;;2.65;1.60;;;17.30;99.90;;;;;;4955170;28;20084;-76
2023/08/01 07:41:47;;;;;;;1.80;1.23;;;17.30;99.90;;;;;;4955492;29;20038;-75
2023/08/01 07:44:13;;;;;;;2.03;1.50;;;17.20;99.90;;;;;;4955611;29;20039;-76
2023/08/01 07:46:39;;;;;;;1.08;0.80;;;17.30;99.90;;;;;;4955955;29;20493;-74
2023/08/01 07:49:04;;;;;;;2.22;1.65;;;16.10;99.90;;;;;;4955684;29;20027;-75
2023/08/01 07:51:30;;;;;;;2.50;1.50;;;17.20;99.90;;;;;;4955555;29;20283;-75
2023/08/01 07:53:57;;;;;;;2.42;1.42;;;17.10;99.90;;;;;;4955112;29;20082;-75
2023/08/01 07:56:23;;;;;;;3.38;1.20;;;17.10;99.90;;;;;;4955587;29;20027;-75
2023/08/01 07:58:48;;;;;;;1.58;1.25;;;17.10;99.90;;;;;;4938226;29;20558;-75
2023/08/01 08:01:14;;;;;;;1.45;0.98;;;17.10;99.90;;;;;;4937748;29;20027;-76
2023/08/01 08:03:39;;;;;;;2.17;1.38;;;16.30;99.90;;;;;;4937740;29;20039;-76
2023/08/01 08:06:05;;;;;;;1.60;1.50;;;16.90;99.90;;;;;;4955314;29;20020;-76
2023/08/01 08:08:33;;;;;;;0.88;0.88;;;16.70;99.90;;;;;;4954895;29;20035;-75
2023/08/01 08:11:01;;;;;;;1.88;1.20;;;16.70;99.90;;;;;;4937756;29;20143;-75
2023/08/01 08:13:26;;;;;;;1.20;0.90;;;16.60;99.90;;;;;;4937849;29;20033;-75
2023/08/01 08:15:54;;;;;;;1.65;1.45;;;16.60;99.90;;;;;;4937674;29;20031;-75
2023/08/01 08:18:20;;;;;;;1.25;1.05;;;16.70;99.90;;;;;;4955051;29;20079;-76
2023/08/01 08:20:46;;;;;;;2.47;0.82;;;16.90;99.90;;;;;;4937496;29;20056;-76
2023/08/01 08:23:15;;;;;;;1.20;1.10;;;17.10;99.90;;;;;;4937368;29;20043;-75
2023/08/01 08:25:44;;;;;;;1.70;0.98;;;17.10;99.90;;;;;;4954621;29;20039;-75
2023/08/01 08:28:12;;;;;;;4.18;1.17;;;17.20;99.90;;;;;;4937663;29;20039;-75
2023/08/01 08:30:38;;;;;;;1.10;0.82;;;17.30;99.90;;;;;;4954830;29;20015;-76
2023/08/01 08:33:06;;;;;;;1.55;0.88;;;18.70;99.90;;;;;;4954440;29;20490;-75
2023/08/01 08:35:35;;;;;;;1.10;1.00;;;17.50;99.90;;;;;;4954748;29;20138;-75
2023/08/01 08:38:03;;;;;;;1.48;0.82;;;17.60;99.90;;;;;;4937362;29;20027;-74
2023/08/01 08:40:31;;;;;;;1.43;0.80;;;17.70;99.90;;;;;;4937393;29;20038;-75
2023/08/01 08:43:01;;;;;;;1.08;0.50;;;17.70;99.90;;;;;;4954673;29;20035;-75
2023/08/01 08:45:29;;;;;;;;;;;17.70;99.90;;;;;;4954978;29;20019;-74
2023/08/01 08:47:58;;;;;;;0.65;0.65;;;17.80;99.90;;;;;;4954058;29;19961;-75
2023/08/01 08:50:24;;;;;;;0.70;0.60;;;18.00;99.90;;;;;;4936355;29;20547;-75
2023/08/01 08:52:53;;;;;;;2.53;1.10;;;18.10;99.90;;;;;;4936783;29;20111;-75
2023/08/01 08:55:22;;;;;;;2.05;1.17;;;18.30;99.90;;;;;;4954065;29;20034;-74
2023/08/01 08:57:52;;;;;;;1.60;1.00;;;18.50;99.90;;;;;;4937104;29;20051;-74
2023/08/01 09:00:21;;;;;;;2.72;2.25;;;18.60;99.90;;;;;;4936981;29;20111;-74
2023/08/01 09:02:47;;;;;;;2.25;0.98;;;18.80;99.90;;;;;;4936652;29;20036;-75
2023/08/01 09:05:13;;;;;;;1.42;0.95;;;18.90;99.90;;;;;;4954085;29;20461;-74
2023/08/01 09:07:43;;;;;;;3.78;1.48;;;18.90;99.90;;;;;;4953955;29;20392;-75
2023/08/01 09:10:09;;;;;;;1.30;1.00;;;18.90;99.90;;;;;;4936615;29;20154;-75
2023/08/01 09:12:35;;;;;;;1.85;1.00;;;18.90;99.90;;;;;;4954288;29;20237;-75
2023/08/01 09:15:01;;;;;;;2.38;1.20;;;18.90;99.90;;;;;;4954422;29;20020;-75
2023/08/01 09:17:27;;;;;;;2.60;1.15;;;18.90;99.90;;;;;;4936513;29;20028;-75
2023/08/01 09:20:08;;;;;;;2.95;0.85;;;19.00;99.90;;;;;;4953757;29;20023;-75
2023/08/01 09:22:47;;;;;;;1.60;0.82;;;19.00;99.90;;;;;;4953284;29;20046;-77
2023/08/01 09:25:13;;;;;;;1.75;1.05;;;19.20;99.90;;;;;;4953288;29;20432;-75
2023/08/01 09:27:39;;;;;;;1.17;0.77;;;19.20;99.90;;;;;;4936105;29;20372;-75
2023/08/01 09:30:15;;;;;;;1.80;1.35;;;19.20;99.90;;;;;;4953526;29;20444;-75
2023/08/01 09:32:50;;;;;;;2.60;0.80;;;19.40;99.90;;;;;;4936137;29;20488;-75
2023/08/01 09:35:16;;;;;;;2.47;0.95;;;19.50;99.90;;;;;;4936144;29;20321;-76
2023/08/01 09:37:45;;;;;;;3.72;1.13;;;19.80;99.90;;;;;;4953645;29;20275;-76
2023/08/01 09:40:11;;;;;;;1.52;0.77;;;19.70;99.90;;;;;;4935806;29;20031;-76
2023/08/01 09:42:41;;;;;;;1.17;1.05;;;19.80;99.90;;;;;;4952602;29;20047;-78
2023/08/01 09:45:14;;;;;;;1.55;0.88;;;19.70;99.90;;;;;;4936108;29;20020;-78
2023/08/01 09:47:40;;;;;;;1.00;0.90;;;19.70;99.90;;;;;;4953612;29;20323;-76
2023/08/01 09:50:06;;;;;;;1.10;0.85;;;19.90;99.90;;;;;;4952979;29;20464;-76
2023/08/01 09:52:33;;;;;;;1.67;1.00;;;19.90;99.90;;;;;;4952537;29;20031;-77
2023/08/01 09:54:59;;;;;;;1.65;0.52;;;20.00;99.90;;;;;;4952833;29;20086;-76
2023/08/01 09:57:31;;;;;;;1.23;0.73;;;19.90;99.90;;;;;;4952772;29;20081;-77
2023/08/01 09:59:58;;;;;;;0.73;0.70;;;19.90;99.90;;;;;;4952908;29;20106;-76
2023/08/01 10:02:31;;;;;;;0.90;0.70;;;19.80;99.90;;;;;;4934802;29;20059;-76
2023/08/01 10:05:00;;;;;;;2.25;0.75;;;19.60;99.90;;;;;;4952761;29;20621;-76
2023/08/01 10:07:29;;;;;;;1.42;0.60;;;19.40;99.90;;;;;;4952491;29;20031;-77
2023/08/01 10:09:57;;;;;;;0.32;0.32;;;19.30;99.90;;;;;;4952772;29;20030;-77
2023/08/01 10:12:27;;;;;;;3.80;1.00;;;19.10;99.90;;;;;;4952730;29;20039;-77
2023/08/01 10:14:53;;;;;;;0.95;0.85;;;19.00;99.90;;;;;;4935258;29;20031;-76
2023/08/01 10:17:21;;;;;;;0.98;0.85;;;19.10;99.90;;;;;;4952601;29;20299;-76
2023/08/01 10:19:49;;;;;;;1.48;0.60;;;19.10;99.90;;;;;;4953441;29;20026;-76
2023/08/01 10:22:15;;;;;;;0.82;0.68;;;19.10;99.90;;;;;;4953510;29;20046;-76
2023/08/01 10:24:42;;;;;;;0.65;0.65;;;19.20;99.90;;;;;;4952648;29;20420;-76
2023/08/01 10:27:13;;;;;;;0.55;0.55;;;19.30;99.90;;;;;;4952228;29;20051;-77
2023/08/01 10:29:39;;;;;;;3.25;1.10;;;19.50;99.90;;;;;;4952284;29;20479;-76
2023/08/01 10:32:07;;;;;;;4.22;0.60;;;19.70;99.90;;;;;;4952091;29;20099;-77
2023/08/01 10:34:33;;;;;;;2.33;0.40;;;19.70;99.90;;;;;;4952413;29;20055;-77
2023/08/01 10:37:00;;;;;;;0.75;0.75;;;19.80;99.90;;;;;;4951916;29;20515;-76
2023/08/01 10:39:27;;;;;;;0.77;0.75;;;19.90;99.90;;;;;;4951651;29;20523;-76
2023/08/01 10:42:01;;;;;;;1.17;0.40;;;19.90;99.90;;;;;;4934530;29;20046;-76
2023/08/01 10:44:27;;;;;;;1.15;0.68;;;20.00;99.90;;;;;;4951918;29;20042;-77
2023/08/01 10:47:02;;;;;;;0.70;0.45;;;20.00;99.90;;;;;;4951920;29;20044;-77
2023/08/01 10:49:38;;;;;;;1.95;0.70;;;20.30;99.90;;;;;;4934170;29;20058;-77
2023/08/01 10:52:18;;;;;;;2.78;0.57;;;20.30;99.90;;;;;;4934128;29;20020;-77
2023/08/01 10:54:44;;;;;;;1.05;0.80;;;20.30;99.90;;;;;;4934454;29;20035;-76
2023/08/01 10:57:18;;;;;;;1.77;0.65;;;20.20;99.90;;;;;;4934248;29;20062;-77
2023/08/01 10:59:44;;;;;;;2.30;0.70;;;20.30;99.90;;;;;;4934182;29;20492;-76
2023/08/01 11:02:10;;;;;;;0.50;0.50;;;20.40;99.90;;;;;;4933990;29;20086;-76
2023/08/01 11:04:36;;;;;;;0.60;0.60;;;20.50;99.90;;;;;;4951583;29;20027;-77
2023/08/01 11:07:04;;;;;;;1.85;0.68;;;20.50;99.90;;;;;;4933509;29;20038;-77
2023/08/01 11:09:29;;;;;;;2.63;0.98;;;20.60;99.90;;;;;;4950971;29;20038;-77
2023/08/01 11:11:57;;;;;;;1.42;1.08;;;21.10;99.90;;;;;;4951282;28;20023;-77
2023/08/01 11:14:27;;;;;;;1.88;0.50;;;21.50;99.90;;;;;;4951486;29;20248;-76
2023/08/01 11:16:57;;;;;;;1.33;0.80;;;21.60;99.90;;;;;;4934142;29;20503;-77
2023/08/01 11:19:24;;;;;;;0.65;0.60;;;21.80;99.90;;;;;;4951180;29;20392;-76
2023/08/01 11:21:56;;;;;;;2.85;1.27;;;21.80;99.90;;;;;;4951055;29;20050;-75
2023/08/01 11:24:22;;;;;;;1.13;0.63;;;21.70;99.90;;;;;;4933401;29;20023;-76
2023/08/01 11:26:49;;;;;;;0.40;0.40;;;21.80;99.90;;;;;;4951128;29;20062;-76
2023/08/01 11:29:16;;;;;;;3.60;0.70;;;21.70;99.90;;;;;;4934015;29;20171;-76
2023/08/01 11:31:55;;;;;;;0.55;0.45;;;21.70;99.90;;;;;;4951139;29;20023;-76
2023/08/01 11:34:21;;;;;;;0.73;0.30;;;21.70;99.90;;;;;;4933554;29;20031;-77
2023/08/01 11:36:47;;;;;;;2.67;0.40;;;22.10;99.90;;;;;;4950042;29;20035;-75
2023/08/01 11:39:15;;;;;;;0.63;0.45;;;22.30;99.90;;;;;;4948450;29;20057;-75
2023/08/01 11:41:42;;;;;;;2.55;0.35;;;22.20;99.90;;;;;;4931820;29;20031;-75
2023/08/01 11:44:10;;;;;;;0.57;0.35;;;22.10;99.90;;;;;;4932072;29;20055;-75
2023/08/01 11:46:41;;;;;;;0.43;0.38;;;22.50;99.90;;;;;;4949547;29;20082;-76
2023/08/01 11:49:07;;;;;;;1.10;0.40;;;23.30;99.90;;;;;;4932458;29;20054;-77
2023/08/01 11:51:43;;;;;;;1.33;1.05;;;23.60;99.90;;;;;;4932862;29;20024;-78
2023/08/01 11:54:11;;;;;;;0.47;0.43;;;23.40;99.90;;;;;;4933132;29;20432;-78
2023/08/01 11:56:37;;;;;;;0.75;0.65;;;23.00;99.90;;;;;;4949809;29;20027;-77
2023/08/01 11:59:17;;;;;;;1.38;0.77;;;22.70;99.90;;;;;;4932276;29;20034;-76
2023/08/01 12:01:46;;;;;;;0.73;0.70;;;22.30;99.90;;;;;;4949278;29;20072;-74
2023/08/01 12:04:26;;;;;;;0.88;0.60;;;22.30;99.90;;;;;;4949391;29;20042;-75
2023/08/01 12:06:52;;;;;;;0.82;0.45;;;22.70;99.90;;;;;;4950138;29;20028;-74
2023/08/01 12:09:19;;;;;;;1.58;0.50;;;22.60;99.90;;;;;;4950001;29;20094;-75
2023/08/01 12:11:45;;;;;;;2.08;0.70;;;22.30;99.90;;;;;;4933373;29;20121;-73
2023/08/01 12:14:13;;;;;;;1.63;0.52;;;22.40;99.90;;;;;;4933266;29;20417;-74
2023/08/01 12:16:45;;;;;;;0.52;0.40;;;22.00;99.90;;;;;;4950871;29;20503;-75
2023/08/01 12:19:11;;;;;;;0.30;0.30;;;21.70;99.90;;;;;;4950782;29;20031;-74
2023/08/01 12:21:37;;;;;;;0.57;0.57;;;21.30;99.90;;;;;;4950819;29;20224;-74
2023/08/01 12:24:03;;;;;;;0.30;0.30;;;21.40;99.90;;;;;;4957158;28;20058;-74
2023/08/01 12:26:29;;;;;;;0.85;0.40;;;21.60;99.90;;;;;;4963442;29;20039;-76
2023/08/01 12:28:55;;;;;;;0.40;0.20;;;21.80;99.90;;;;;;4948257;29;20144;-76
2023/08/01 12:31:22;;;;;;;1.10;0.43;;;21.70;99.90;;;;;;4965354;29;20015;-76
2023/08/01 12:33:48;;;;;;;0.50;0.30;;;22.20;99.90;;;;;;4942249;29;20171;-74
2023/08/01 12:36:15;;;;;;;0.45;0.45;;;22.30;99.90;;;;;;4958857;29;20323;-74
2023/08/01 12:38:41;;;;;;;0.98;0.47;;;21.90;99.90;;;;;;4964076;29;20019;-76
2023/08/01 12:41:07;;;;;;;0.57;0.57;;;22.40;99.90;;;;;;4956441;29;20043;-76
2023/08/01 12:43:33;;;;;;;0.50;0.43;;;22.90;99.90;;;;;;4953863;29;20035;-76
2023/08/01 12:45:58;;;;;;;0.30;0.30;;;23.50;99.90;;;;;;4941118;29;20023;-75